sensor_id;sensor_type;location;lat;lon;timestamp;P1;durP1;ratioP1;P2;durP2;ratioP2
9115;SDS011;4593;53.652;10.168;2023-02-04T00:02:02;5.17;;;2.30;;
9115;SDS011;4593;53.652;10.168;2023-02-04T00:04:28;2.27;;;2.07;;
9115;SDS011;4593;53.652;10.168;2023-02-04T00:06:54;2.00;;;1.90;;
9115;SDS011;4593;53.652;10.168;2023-02-04T00:09:20;2.07;;;1.97;;
9115;SDS011;4593;53.652;10.168;2023-02-04T00:11:46;2.10;;;2.00;;
9115;SDS011;4593;53.652;10.168;2023-02-04T00:14:12;2.00;;;1.90;;
9115;SDS011;4593;53.652;10.168;2023-02-04T00:16:38;2.03;;;1.93;;
9115;SDS011;4593;53.652;10.168;2023-02-04T00:19:04;2.93;;;2.17;;
9115;SDS011;4593;53.652;10.168;2023-02-04T00:21:30;1.93;;;1.83;;
9115;SDS011;4593;53.652;10.168;2023-02-04T00:23:56;2.27;;;2.10;;
9115;SDS011;4593;53.652;10.168;2023-02-04T00:26:22;3.30;;;2.03;;
9115;SDS011;4593;53.652;10.168;2023-02-04T00:28:48;2.00;;;1.80;;
9115;SDS011;4593;53.652;10.168;2023-02-04T00:31:14;6.40;;;1.80;;
9115;SDS011;4593;53.652;10.168;2023-02-04T00:33:40;3.10;;;2.53;;
9115;SDS011;4593;53.652;10.168;2023-02-04T00:36:07;3.80;;;2.17;;
9115;SDS011;4593;53.652;10.168;2023-02-04T00:38:33;2.27;;;2.07;;
9115;SDS011;4593;53.652;10.168;2023-02-04T00:40:59;2.10;;;2.00;;
9115;SDS011;4593;53.652;10.168;2023-02-04T00:43:25;2.10;;;2.00;;
9115;SDS011;4593;53.652;10.168;2023-02-04T00:45:51;1.93;;;1.83;;
9115;SDS011;4593;53.652;10.168;2023-02-04T00:48:17;1.80;;;1.70;;
9115;SDS011;4593;53.652;10.168;2023-02-04T00:50:44;2.00;;;1.90;;
9115;SDS011;4593;53.652;10.168;2023-02-04T00:53:10;2.90;;;1.97;;
9115;SDS011;4593;53.652;10.168;2023-02-04T00:55:36;2.10;;;2.00;;
9115;SDS011;4593;53.652;10.168;2023-02-04T00:58:02;2.00;;;1.90;;
9115;SDS011;4593;53.652;10.168;2023-02-04T01:00:28;1.90;;;1.80;;
9115;SDS011;4593;53.652;10.168;2023-02-04T01:02:53;2.10;;;1.90;;
9115;SDS011;4593;53.652;10.168;2023-02-04T01:05:19;2.23;;;1.80;;
9115;SDS011;4593;53.652;10.168;2023-02-04T01:07:45;2.87;;;2.10;;
9115;SDS011;4593;53.652;10.168;2023-02-04T01:10:12;3.37;;;2.20;;
9115;SDS011;4593;53.652;10.168;2023-02-04T01:12:39;3.03;;;2.10;;
9115;SDS011;4593;53.652;10.168;2023-02-04T01:15:05;2.03;;;1.90;;
9115;SDS011;4593;53.652;10.168;2023-02-04T01:17:31;1.70;;;1.60;;
9115;SDS011;4593;53.652;10.168;2023-02-04T01:19:57;2.00;;;1.90;;
9115;SDS011;4593;53.652;10.168;2023-02-04T01:22:23;2.37;;;2.00;;
9115;SDS011;4593;53.652;10.168;2023-02-04T01:24:49;3.30;;;2.10;;
9115;SDS011;4593;53.652;10.168;2023-02-04T01:27:15;2.17;;;1.97;;
9115;SDS011;4593;53.652;10.168;2023-02-04T01:29:41;2.17;;;1.97;;
9115;SDS011;4593;53.652;10.168;2023-02-04T01:32:07;1.97;;;1.87;;
9115;SDS011;4593;53.652;10.168;2023-02-04T01:34:33;2.47;;;1.97;;
9115;SDS011;4593;53.652;10.168;2023-02-04T01:36:59;1.90;;;1.80;;
9115;SDS011;4593;53.652;10.168;2023-02-04T01:39:25;2.50;;;2.30;;
9115;SDS011;4593;53.652;10.168;2023-02-04T01:41:51;2.57;;;2.37;;
9115;SDS011;4593;53.652;10.168;2023-02-04T01:44:17;2.53;;;2.33;;
9115;SDS011;4593;53.652;10.168;2023-02-04T01:46:43;2.10;;;2.00;;
9115;SDS011;4593;53.652;10.168;2023-02-04T01:49:09;2.20;;;2.00;;
9115;SDS011;4593;53.652;10.168;2023-02-04T01:51:35;2.90;;;2.17;;
9115;SDS011;4593;53.652;10.168;2023-02-04T01:54:02;3.63;;;2.27;;
9115;SDS011;4593;53.652;10.168;2023-02-04T01:56:29;1.90;;;1.80;;
9115;SDS011;4593;53.652;10.168;2023-02-04T01:58:55;2.43;;;2.03;;
9115;SDS011;4593;53.652;10.168;2023-02-04T02:04:05;2.80;;;2.33;;
9115;SDS011;4593;53.652;10.168;2023-02-04T02:06:31;6.17;;;2.00;;
9115;SDS011;4593;53.652;10.168;2023-02-04T02:08:57;7.47;;;2.20;;
9115;SDS011;4593;53.652;10.168;2023-02-04T02:11:24;3.03;;;2.37;;
9115;SDS011;4593;53.652;10.168;2023-02-04T02:13:51;1.97;;;1.87;;
9115;SDS011;4593;53.652;10.168;2023-02-04T02:16:17;2.10;;;2.00;;
9115;SDS011;4593;53.652;10.168;2023-02-04T02:18:43;2.20;;;2.00;;
9115;SDS011;4593;53.652;10.168;2023-02-04T02:21:09;2.00;;;1.90;;
9115;SDS011;4593;53.652;10.168;2023-02-04T02:26:09;2.00;;;1.90;;
9115;SDS011;4593;53.652;10.168;2023-02-04T02:28:35;2.73;;;2.30;;
9115;SDS011;4593;53.652;10.168;2023-02-04T02:31:01;2.30;;;2.10;;
9115;SDS011;4593;53.652;10.168;2023-02-04T02:33:28;2.00;;;1.90;;
9115;SDS011;4593;53.652;10.168;2023-02-04T02:35:54;4.87;;;1.93;;
9115;SDS011;4593;53.652;10.168;2023-02-04T02:38:20;2.23;;;2.13;;
9115;SDS011;4593;53.652;10.168;2023-02-04T02:40:46;4.70;;;1.80;;
9115;SDS011;4593;53.652;10.168;2023-02-04T02:43:13;2.23;;;2.13;;
9115;SDS011;4593;53.652;10.168;2023-02-04T02:45:40;2.20;;;2.10;;
9115;SDS011;4593;53.652;10.168;2023-02-04T02:48:07;2.17;;;2.07;;
9115;SDS011;4593;53.652;10.168;2023-02-04T02:50:33;1.90;;;1.80;;
9115;SDS011;4593;53.652;10.168;2023-02-04T02:53:00;1.97;;;1.87;;
9115;SDS011;4593;53.652;10.168;2023-02-04T02:55:26;2.00;;;1.90;;
9115;SDS011;4593;53.652;10.168;2023-02-04T02:57:53;3.17;;;2.33;;
9115;SDS011;4593;53.652;10.168;2023-02-04T03:00:20;2.43;;;2.23;;
9115;SDS011;4593;53.652;10.168;2023-02-04T03:03:22;2.43;;;2.00;;
9115;SDS011;4593;53.652;10.168;2023-02-04T03:05:41;1.90;;;1.80;;
9115;SDS011;4593;53.652;10.168;2023-02-04T03:08:08;1.90;;;1.80;;
9115;SDS011;4593;53.652;10.168;2023-02-04T03:10:36;2.00;;;1.90;;
9115;SDS011;4593;53.652;10.168;2023-02-04T03:13:02;2.50;;;2.30;;
9115;SDS011;4593;53.652;10.168;2023-02-04T03:15:29;2.00;;;1.90;;
9115;SDS011;4593;53.652;10.168;2023-02-04T03:17:55;2.17;;;2.03;;
9115;SDS011;4593;53.652;10.168;2023-02-04T03:20:22;2.40;;;2.10;;
9115;SDS011;4593;53.652;10.168;2023-02-04T03:22:49;1.90;;;1.80;;
9115;SDS011;4593;53.652;10.168;2023-02-04T03:25:16;2.00;;;1.90;;
9115;SDS011;4593;53.652;10.168;2023-02-04T03:27:42;2.13;;;2.03;;
9115;SDS011;4593;53.652;10.168;2023-02-04T03:30:08;2.43;;;2.10;;
9115;SDS011;4593;53.652;10.168;2023-02-04T03:32:34;2.13;;;1.93;;
9115;SDS011;4593;53.652;10.168;2023-02-04T03:35:00;2.07;;;1.97;;
9115;SDS011;4593;53.652;10.168;2023-02-04T03:37:26;2.05;;;1.95;;
9115;SDS011;4593;53.652;10.168;2023-02-04T03:39:52;2.47;;;2.30;;
9115;SDS011;4593;53.652;10.168;2023-02-04T03:42:18;2.17;;;2.00;;
9115;SDS011;4593;53.652;10.168;2023-02-04T03:44:44;2.20;;;2.10;;
9115;SDS011;4593;53.652;10.168;2023-02-04T03:47:10;2.03;;;1.93;;
9115;SDS011;4593;53.652;10.168;2023-02-04T03:49:36;2.27;;;2.17;;
9115;SDS011;4593;53.652;10.168;2023-02-04T03:52:02;2.00;;;1.90;;
9115;SDS011;4593;53.652;10.168;2023-02-04T03:54:29;2.10;;;2.00;;
9115;SDS011;4593;53.652;10.168;2023-02-04T03:56:55;2.20;;;2.10;;
9115;SDS011;4593;53.652;10.168;2023-02-04T03:59:21;2.20;;;2.10;;
9115;SDS011;4593;53.652;10.168;2023-02-04T04:01:47;2.13;;;2.03;;
9115;SDS011;4593;53.652;10.168;2023-02-04T04:04:13;2.20;;;2.10;;
9115;SDS011;4593;53.652;10.168;2023-02-04T04:06:39;2.10;;;2.00;;
9115;SDS011;4593;53.652;10.168;2023-02-04T04:09:05;6.93;;;2.20;;
9115;SDS011;4593;53.652;10.168;2023-02-04T04:11:31;2.00;;;1.90;;
9115;SDS011;4593;53.652;10.168;2023-02-04T04:13:57;2.23;;;2.03;;
9115;SDS011;4593;53.652;10.168;2023-02-04T04:16:23;2.57;;;2.37;;
9115;SDS011;4593;53.652;10.168;2023-02-04T04:18:49;2.37;;;2.27;;
9115;SDS011;4593;53.652;10.168;2023-02-04T04:21:15;2.40;;;2.30;;
9115;SDS011;4593;53.652;10.168;2023-02-04T04:23:41;3.03;;;2.20;;
9115;SDS011;4593;53.652;10.168;2023-02-04T04:26:07;2.20;;;2.07;;
9115;SDS011;4593;53.652;10.168;2023-02-04T04:28:33;2.63;;;2.43;;
9115;SDS011;4593;53.652;10.168;2023-02-04T04:30:59;2.63;;;2.20;;
9115;SDS011;4593;53.652;10.168;2023-02-04T04:33:25;2.50;;;2.30;;
9115;SDS011;4593;53.652;10.168;2023-02-04T04:35:51;4.03;;;2.60;;
9115;SDS011;4593;53.652;10.168;2023-02-04T04:38:17;2.33;;;2.13;;
9115;SDS011;4593;53.652;10.168;2023-02-04T04:40:43;2.60;;;2.40;;
9115;SDS011;4593;53.652;10.168;2023-02-04T04:43:09;3.40;;;2.40;;
9115;SDS011;4593;53.652;10.168;2023-02-04T04:45:35;3.83;;;2.50;;
9115;SDS011;4593;53.652;10.168;2023-02-04T04:48:01;4.07;;;3.73;;
9115;SDS011;4593;53.652;10.168;2023-02-04T04:50:27;3.83;;;2.40;;
9115;SDS011;4593;53.652;10.168;2023-02-04T04:52:53;3.60;;;2.53;;
9115;SDS011;4593;53.652;10.168;2023-02-04T04:55:19;2.47;;;2.27;;
9115;SDS011;4593;53.652;10.168;2023-02-04T04:57:45;3.33;;;2.70;;
9115;SDS011;4593;53.652;10.168;2023-02-04T05:00:14;2.43;;;2.30;;
9115;SDS011;4593;53.652;10.168;2023-02-04T05:02:40;2.60;;;2.40;;
9115;SDS011;4593;53.652;10.168;2023-02-04T05:05:07;2.40;;;2.27;;
9115;SDS011;4593;53.652;10.168;2023-02-04T05:07:33;2.37;;;2.27;;
9115;SDS011;4593;53.652;10.168;2023-02-04T05:09:59;2.50;;;2.30;;
9115;SDS011;4593;53.652;10.168;2023-02-04T05:12:25;2.53;;;2.33;;
9115;SDS011;4593;53.652;10.168;2023-02-04T05:14:51;2.70;;;2.50;;
9115;SDS011;4593;53.652;10.168;2023-02-04T05:17:17;2.50;;;2.30;;
9115;SDS011;4593;53.652;10.168;2023-02-04T05:19:43;4.50;;;2.45;;
9115;SDS011;4593;53.652;10.168;2023-02-04T05:22:09;2.30;;;2.20;;
9115;SDS011;4593;53.652;10.168;2023-02-04T05:24:35;2.43;;;2.23;;
9115;SDS011;4593;53.652;10.168;2023-02-04T05:27:01;2.95;;;2.53;;
9115;SDS011;4593;53.652;10.168;2023-02-04T05:29:27;2.50;;;2.25;;
9115;SDS011;4593;53.652;10.168;2023-02-04T05:31:53;3.42;;;2.42;;
9115;SDS011;4593;53.652;10.168;2023-02-04T05:34:19;2.03;;;1.92;;
9115;SDS011;4593;53.652;10.168;2023-02-04T05:36:45;2.80;;;2.60;;
9115;SDS011;4593;53.652;10.168;2023-02-04T05:39:11;3.00;;;2.70;;
9115;SDS011;4593;53.652;10.168;2023-02-04T05:41:37;2.43;;;2.27;;
9115;SDS011;4593;53.652;10.168;2023-02-04T05:44:03;2.47;;;2.28;;
9115;SDS011;4593;53.652;10.168;2023-02-04T05:46:30;2.80;;;2.60;;
9115;SDS011;4593;53.652;10.168;2023-02-04T05:48:55;2.60;;;2.40;;
9115;SDS011;4593;53.652;10.168;2023-02-04T05:51:21;2.50;;;2.30;;
9115;SDS011;4593;53.652;10.168;2023-02-04T05:53:48;2.10;;;2.00;;
9115;SDS011;4593;53.652;10.168;2023-02-04T05:56:14;2.47;;;2.28;;
9115;SDS011;4593;53.652;10.168;2023-02-04T05:58:40;2.65;;;2.50;;
9115;SDS011;4593;53.652;10.168;2023-02-04T06:01:06;2.90;;;2.60;;
9115;SDS011;4593;53.652;10.168;2023-02-04T06:03:32;2.50;;;2.30;;
9115;SDS011;4593;53.652;10.168;2023-02-04T06:05:58;2.47;;;2.38;;
9115;SDS011;4593;53.652;10.168;2023-02-04T06:08:24;2.20;;;2.10;;
9115;SDS011;4593;53.652;10.168;2023-02-04T06:10:50;2.72;;;2.53;;
9115;SDS011;4593;53.652;10.168;2023-02-04T06:13:16;2.17;;;2.08;;
9115;SDS011;4593;53.652;10.168;2023-02-04T06:15:42;3.13;;;2.63;;
9115;SDS011;4593;53.652;10.168;2023-02-04T06:18:08;2.75;;;2.55;;
9115;SDS011;4593;53.652;10.168;2023-02-04T06:20:34;1.98;;;1.88;;
9115;SDS011;4593;53.652;10.168;2023-02-04T06:23:00;4.43;;;2.17;;
9115;SDS011;4593;53.652;10.168;2023-02-04T06:25:26;2.20;;;2.10;;
9115;SDS011;4593;53.652;10.168;2023-02-04T06:27:52;2.25;;;2.15;;
9115;SDS011;4593;53.652;10.168;2023-02-04T06:30:18;2.22;;;2.13;;
9115;SDS011;4593;53.652;10.168;2023-02-04T06:32:44;2.70;;;2.50;;
9115;SDS011;4593;53.652;10.168;2023-02-04T06:35:10;2.38;;;2.28;;
9115;SDS011;4593;53.652;10.168;2023-02-04T06:37:37;2.47;;;2.33;;
9115;SDS011;4593;53.652;10.168;2023-02-04T06:40:03;2.47;;;2.30;;
9115;SDS011;4593;53.652;10.168;2023-02-04T06:42:30;2.65;;;2.45;;
9115;SDS011;4593;53.652;10.168;2023-02-04T06:44:56;7.83;;;2.40;;
9115;SDS011;4593;53.652;10.168;2023-02-04T06:47:22;2.47;;;2.13;;
9115;SDS011;4593;53.652;10.168;2023-02-04T06:49:48;2.60;;;2.30;;
9115;SDS011;4593;53.652;10.168;2023-02-04T06:52:14;2.50;;;2.30;;
9115;SDS011;4593;53.652;10.168;2023-02-04T06:54:40;2.72;;;2.53;;
9115;SDS011;4593;53.652;10.168;2023-02-04T06:57:06;2.88;;;2.58;;
9115;SDS011;4593;53.652;10.168;2023-02-04T06:59:35;2.60;;;2.40;;
9115;SDS011;4593;53.652;10.168;2023-02-04T07:02:02;2.58;;;2.42;;
9115;SDS011;4593;53.652;10.168;2023-02-04T07:04:28;3.08;;;2.78;;
9115;SDS011;4593;53.652;10.168;2023-02-04T07:06:55;2.90;;;2.63;;
9115;SDS011;4593;53.652;10.168;2023-02-04T07:09:21;3.78;;;2.30;;
9115;SDS011;4593;53.652;10.168;2023-02-04T07:11:47;3.00;;;2.72;;
9115;SDS011;4593;53.652;10.168;2023-02-04T07:14:13;4.75;;;3.28;;
9115;SDS011;4593;53.652;10.168;2023-02-04T07:16:39;5.20;;;3.05;;
9115;SDS011;4593;53.652;10.168;2023-02-04T07:19:05;3.53;;;3.23;;
9115;SDS011;4593;53.652;10.168;2023-02-04T07:21:31;3.30;;;3.10;;
9115;SDS011;4593;53.652;10.168;2023-02-04T07:23:57;5.20;;;3.42;;
9115;SDS011;4593;53.652;10.168;2023-02-04T07:26:23;4.45;;;3.63;;
9115;SDS011;4593;53.652;10.168;2023-02-04T07:28:49;3.65;;;3.30;;
9115;SDS011;4593;53.652;10.168;2023-02-04T07:31:16;2.97;;;2.75;;
9115;SDS011;4593;53.652;10.168;2023-02-04T07:33:42;4.33;;;3.70;;
9115;SDS011;4593;53.652;10.168;2023-02-04T07:36:08;4.38;;;3.97;;
9115;SDS011;4593;53.652;10.168;2023-02-04T07:38:34;4.82;;;4.00;;
9115;SDS011;4593;53.652;10.168;2023-02-04T07:41:00;4.82;;;3.90;;
9115;SDS011;4593;53.652;10.168;2023-02-04T07:43:26;3.67;;;3.38;;
9115;SDS011;4593;53.652;10.168;2023-02-04T07:45:52;3.70;;;3.40;;
9115;SDS011;4593;53.652;10.168;2023-02-04T07:48:18;3.67;;;3.38;;
9115;SDS011;4593;53.652;10.168;2023-02-04T07:50:44;3.70;;;3.33;;
9115;SDS011;4593;53.652;10.168;2023-02-04T07:53:10;3.45;;;3.15;;
9115;SDS011;4593;53.652;10.168;2023-02-04T07:55:36;3.10;;;2.90;;
9115;SDS011;4593;53.652;10.168;2023-02-04T07:58:02;3.20;;;2.97;;
9115;SDS011;4593;53.652;10.168;2023-02-04T08:00:28;3.40;;;3.20;;
9115;SDS011;4593;53.652;10.168;2023-02-04T08:02:54;4.32;;;3.80;;
9115;SDS011;4593;53.652;10.168;2023-02-04T08:05:20;5.82;;;3.60;;
9115;SDS011;4593;53.652;10.168;2023-02-04T08:07:46;3.13;;;2.92;;
9115;SDS011;4593;53.652;10.168;2023-02-04T08:10:13;3.38;;;3.08;;
9115;SDS011;4593;53.652;10.168;2023-02-04T08:12:39;4.90;;;3.30;;
9115;SDS011;4593;53.652;10.168;2023-02-04T08:15:05;2.92;;;2.72;;
9115;SDS011;4593;53.652;10.168;2023-02-04T08:17:32;2.78;;;2.58;;
9115;SDS011;4593;53.652;10.168;2023-02-04T08:19:58;3.20;;;2.90;;
9115;SDS011;4593;53.652;10.168;2023-02-04T08:22:24;2.97;;;2.78;;
9115;SDS011;4593;53.652;10.168;2023-02-04T08:24:50;2.90;;;2.70;;
9115;SDS011;4593;53.652;10.168;2023-02-04T08:27:17;3.27;;;3.00;;
9115;SDS011;4593;53.652;10.168;2023-02-04T08:29:43;3.37;;;3.07;;
9115;SDS011;4593;53.652;10.168;2023-02-04T08:32:09;2.70;;;2.50;;
9115;SDS011;4593;53.652;10.168;2023-02-04T08:34:37;3.78;;;2.60;;
9115;SDS011;4593;53.652;10.168;2023-02-04T08:37:03;5.03;;;3.15;;
9115;SDS011;4593;53.652;10.168;2023-02-04T08:39:29;4.00;;;3.23;;
9115;SDS011;4593;53.652;10.168;2023-02-04T08:41:56;3.85;;;3.45;;
9115;SDS011;4593;53.652;10.168;2023-02-04T08:44:22;3.20;;;2.90;;
9115;SDS011;4593;53.652;10.168;2023-02-04T08:46:48;4.73;;;3.63;;
9115;SDS011;4593;53.652;10.168;2023-02-04T08:49:14;3.13;;;2.60;;
9115;SDS011;4593;53.652;10.168;2023-02-04T08:51:41;4.03;;;2.80;;
9115;SDS011;4593;53.652;10.168;2023-02-04T08:54:07;2.93;;;2.70;;
9115;SDS011;4593;53.652;10.168;2023-02-04T08:56:33;3.43;;;3.17;;
9115;SDS011;4593;53.652;10.168;2023-02-04T08:58:59;3.47;;;2.60;;
9115;SDS011;4593;53.652;10.168;2023-02-04T09:01:25;3.83;;;2.87;;
9115;SDS011;4593;53.652;10.168;2023-02-04T09:03:51;3.33;;;3.00;;
9115;SDS011;4593;53.652;10.168;2023-02-04T09:06:17;2.60;;;2.40;;
9115;SDS011;4593;53.652;10.168;2023-02-04T09:08:44;2.87;;;2.57;;
9115;SDS011;4593;53.652;10.168;2023-02-04T09:11:10;3.07;;;2.87;;
9115;SDS011;4593;53.652;10.168;2023-02-04T09:13:36;2.97;;;2.73;;
9115;SDS011;4593;53.652;10.168;2023-02-04T09:16:02;3.57;;;2.57;;
9115;SDS011;4593;53.652;10.168;2023-02-04T09:18:28;5.17;;;2.97;;
9115;SDS011;4593;53.652;10.168;2023-02-04T09:20:56;2.83;;;2.63;;
9115;SDS011;4593;53.652;10.168;2023-02-04T09:23:22;4.57;;;3.50;;
9115;SDS011;4593;53.652;10.168;2023-02-04T09:25:49;2.63;;;2.43;;
9115;SDS011;4593;53.652;10.168;2023-02-04T09:28:15;3.60;;;3.17;;
9115;SDS011;4593;53.652;10.168;2023-02-04T09:30:42;2.60;;;2.40;;
9115;SDS011;4593;53.652;10.168;2023-02-04T09:33:08;3.13;;;2.80;;
9115;SDS011;4593;53.652;10.168;2023-02-04T09:35:34;3.43;;;3.13;;
9115;SDS011;4593;53.652;10.168;2023-02-04T09:38:01;2.90;;;2.70;;
9115;SDS011;4593;53.652;10.168;2023-02-04T09:40:27;5.63;;;3.17;;
9115;SDS011;4593;53.652;10.168;2023-02-04T09:42:54;3.03;;;2.83;;
9115;SDS011;4593;53.652;10.168;2023-02-04T09:45:25;6.63;;;3.40;;
9115;SDS011;4593;53.652;10.168;2023-02-04T09:47:52;3.37;;;3.07;;
9115;SDS011;4593;53.652;10.168;2023-02-04T09:50:19;3.17;;;2.87;;
9115;SDS011;4593;53.652;10.168;2023-02-04T09:52:47;3.00;;;2.60;;
9115;SDS011;4593;53.652;10.168;2023-02-04T09:55:14;3.17;;;2.87;;
9115;SDS011;4593;53.652;10.168;2023-02-04T09:57:40;3.20;;;2.90;;
9115;SDS011;4593;53.652;10.168;2023-02-04T10:00:19;9.10;;;2.50;;
9115;SDS011;4593;53.652;10.168;2023-02-04T10:02:46;2.90;;;2.60;;
9115;SDS011;4593;53.652;10.168;2023-02-04T10:05:46;3.37;;;2.83;;
9115;SDS011;4593;53.652;10.168;2023-02-04T10:08:05;3.23;;;2.93;;
9115;SDS011;4593;53.652;10.168;2023-02-04T10:10:31;7.33;;;2.93;;
9115;SDS011;4593;53.652;10.168;2023-02-04T10:12:57;2.90;;;2.70;;
9115;SDS011;4593;53.652;10.168;2023-02-04T10:15:24;13.30;;;3.13;;
9115;SDS011;4593;53.652;10.168;2023-02-04T10:17:52;2.47;;;2.27;;
9115;SDS011;4593;53.652;10.168;2023-02-04T10:20:19;2.70;;;2.50;;
9115;SDS011;4593;53.652;10.168;2023-02-04T10:22:47;2.80;;;2.50;;
9115;SDS011;4593;53.652;10.168;2023-02-04T10:25:14;2.73;;;2.53;;
9115;SDS011;4593;53.652;10.168;2023-02-04T10:27:57;2.87;;;2.67;;
9115;SDS011;4593;53.652;10.168;2023-02-04T10:30:24;2.67;;;2.47;;
9115;SDS011;4593;53.652;10.168;2023-02-04T10:32:51;2.70;;;2.50;;
9115;SDS011;4593;53.652;10.168;2023-02-04T10:35:18;3.23;;;2.70;;
9115;SDS011;4593;53.652;10.168;2023-02-04T10:37:45;4.47;;;3.33;;
9115;SDS011;4593;53.652;10.168;2023-02-04T10:43:14;2.90;;;2.60;;
9115;SDS011;4593;53.652;10.168;2023-02-04T10:46:18;4.77;;;2.97;;
9115;SDS011;4593;53.652;10.168;2023-02-04T10:48:40;3.33;;;3.03;;
9115;SDS011;4593;53.652;10.168;2023-02-04T10:51:07;3.27;;;2.97;;
9115;SDS011;4593;53.652;10.168;2023-02-04T10:53:34;5.73;;;2.87;;
9115;SDS011;4593;53.652;10.168;2023-02-04T10:56:20;10.70;;;3.57;;
9115;SDS011;4593;53.652;10.168;2023-02-04T10:58:46;2.90;;;2.70;;
9115;SDS011;4593;53.652;10.168;2023-02-04T11:01:13;2.67;;;2.33;;
9115;SDS011;4593;53.652;10.168;2023-02-04T11:03:40;2.63;;;2.37;;
9115;SDS011;4593;53.652;10.168;2023-02-04T11:06:10;2.90;;;2.70;;
9115;SDS011;4593;53.652;10.168;2023-02-04T11:08:37;2.80;;;2.60;;
9115;SDS011;4593;53.652;10.168;2023-02-04T11:11:08;3.47;;;2.57;;
9115;SDS011;4593;53.652;10.168;2023-02-04T11:13:41;2.80;;;2.60;;
9115;SDS011;4593;53.652;10.168;2023-02-04T11:16:09;2.27;;;2.07;;
9115;SDS011;4593;53.652;10.168;2023-02-04T11:18:58;8.10;;;2.93;;
9115;SDS011;4593;53.652;10.168;2023-02-04T11:26:46;2.50;;;2.27;;
9115;SDS011;4593;53.652;10.168;2023-02-04T11:39:21;1.90;;;1.80;;
9115;SDS011;4593;53.652;10.168;2023-02-04T11:41:47;2.50;;;2.30;;
9115;SDS011;4593;53.652;10.168;2023-02-04T11:44:13;2.50;;;2.30;;
9115;SDS011;4593;53.652;10.168;2023-02-04T11:46:40;2.13;;;2.03;;
9115;SDS011;4593;53.652;10.168;2023-02-04T11:49:14;2.33;;;2.13;;
9115;SDS011;4593;53.652;10.168;2023-02-04T11:51:42;2.20;;;2.10;;
9115;SDS011;4593;53.652;10.168;2023-02-04T11:54:10;1.80;;;1.70;;
9115;SDS011;4593;53.652;10.168;2023-02-04T11:56:36;2.37;;;2.13;;
9115;SDS011;4593;53.652;10.168;2023-02-04T11:59:03;2.10;;;2.00;;
9115;SDS011;4593;53.652;10.168;2023-02-04T12:01:30;2.10;;;2.00;;
9115;SDS011;4593;53.652;10.168;2023-02-04T12:03:57;2.20;;;2.10;;
9115;SDS011;4593;53.652;10.168;2023-02-04T12:06:25;2.00;;;1.90;;
9115;SDS011;4593;53.652;10.168;2023-02-04T12:08:51;1.90;;;1.80;;
9115;SDS011;4593;53.652;10.168;2023-02-04T12:11:24;2.00;;;1.90;;
9115;SDS011;4593;53.652;10.168;2023-02-04T12:13:54;1.87;;;1.77;;
9115;SDS011;4593;53.652;10.168;2023-02-04T12:16:21;2.00;;;1.90;;
9115;SDS011;4593;53.652;10.168;2023-02-04T12:18:47;1.90;;;1.80;;
9115;SDS011;4593;53.652;10.168;2023-02-04T12:21:13;3.27;;;1.80;;
9115;SDS011;4593;53.652;10.168;2023-02-04T12:23:39;1.83;;;1.73;;
9115;SDS011;4593;53.652;10.168;2023-02-04T12:26:09;2.23;;;2.03;;
9115;SDS011;4593;53.652;10.168;2023-02-04T12:28:35;3.30;;;2.13;;
9115;SDS011;4593;53.652;10.168;2023-02-04T12:31:01;1.90;;;1.80;;
9115;SDS011;4593;53.652;10.168;2023-02-04T12:33:27;2.37;;;2.17;;
9115;SDS011;4593;53.652;10.168;2023-02-04T12:35:53;2.10;;;2.00;;
9115;SDS011;4593;53.652;10.168;2023-02-04T12:38:19;2.37;;;2.20;;
9115;SDS011;4593;53.652;10.168;2023-02-04T12:40:45;2.10;;;2.00;;
9115;SDS011;4593;53.652;10.168;2023-02-04T12:43:11;2.73;;;2.20;;
9115;SDS011;4593;53.652;10.168;2023-02-04T12:45:37;2.20;;;2.10;;
9115;SDS011;4593;53.652;10.168;2023-02-04T12:48:07;2.00;;;1.90;;
9115;SDS011;4593;53.652;10.168;2023-02-04T12:50:33;2.07;;;1.93;;
9115;SDS011;4593;53.652;10.168;2023-02-04T12:52:59;1.90;;;1.80;;
9115;SDS011;4593;53.652;10.168;2023-02-04T12:55:26;3.27;;;2.27;;
9115;SDS011;4593;53.652;10.168;2023-02-04T12:57:52;2.57;;;2.37;;
9115;SDS011;4593;53.652;10.168;2023-02-04T13:00:20;2.63;;;2.10;;
9115;SDS011;4593;53.652;10.168;2023-02-04T13:02:46;2.13;;;2.03;;
9115;SDS011;4593;53.652;10.168;2023-02-04T13:05:12;2.87;;;2.60;;
9115;SDS011;4593;53.652;10.168;2023-02-04T13:07:39;2.43;;;2.23;;
9115;SDS011;4593;53.652;10.168;2023-02-04T13:10:05;2.20;;;2.00;;
9115;SDS011;4593;53.652;10.168;2023-02-04T13:12:32;2.13;;;2.03;;
9115;SDS011;4593;53.652;10.168;2023-02-04T13:14:58;2.20;;;2.00;;
9115;SDS011;4593;53.652;10.168;2023-02-04T13:17:24;2.23;;;2.10;;
9115;SDS011;4593;53.652;10.168;2023-02-04T13:19:50;3.50;;;2.00;;
9115;SDS011;4593;53.652;10.168;2023-02-04T13:22:16;2.00;;;1.90;;
9115;SDS011;4593;53.652;10.168;2023-02-04T13:24:42;2.17;;;2.00;;
9115;SDS011;4593;53.652;10.168;2023-02-04T13:27:08;2.20;;;2.10;;
9115;SDS011;4593;53.652;10.168;2023-02-04T13:29:34;2.33;;;1.93;;
9115;SDS011;4593;53.652;10.168;2023-02-04T13:32:01;2.27;;;2.00;;
9115;SDS011;4593;53.652;10.168;2023-02-04T13:34:27;2.50;;;2.30;;
9115;SDS011;4593;53.652;10.168;2023-02-04T13:36:53;1.90;;;1.80;;
9115;SDS011;4593;53.652;10.168;2023-02-04T13:39:19;2.70;;;2.50;;
9115;SDS011;4593;53.652;10.168;2023-02-04T13:41:45;1.90;;;1.80;;
9115;SDS011;4593;53.652;10.168;2023-02-04T13:44:11;2.13;;;2.00;;
9115;SDS011;4593;53.652;10.168;2023-02-04T13:46:37;2.10;;;2.00;;
9115;SDS011;4593;53.652;10.168;2023-02-04T13:49:04;3.77;;;2.17;;
9115;SDS011;4593;53.652;10.168;2023-02-04T13:51:30;2.03;;;1.83;;
9115;SDS011;4593;53.652;10.168;2023-02-04T13:53:56;2.10;;;2.00;;
9115;SDS011;4593;53.652;10.168;2023-02-04T13:56:23;2.10;;;1.90;;
9115;SDS011;4593;53.652;10.168;2023-02-04T13:58:49;1.90;;;1.80;;
9115;SDS011;4593;53.652;10.168;2023-02-04T14:01:15;1.97;;;1.87;;
9115;SDS011;4593;53.652;10.168;2023-02-04T14:03:41;1.90;;;1.80;;
9115;SDS011;4593;53.652;10.168;2023-02-04T14:06:07;1.90;;;1.80;;
9115;SDS011;4593;53.652;10.168;2023-02-04T14:08:33;2.90;;;2.10;;
9115;SDS011;4593;53.652;10.168;2023-02-04T14:11:00;2.20;;;2.10;;
9115;SDS011;4593;53.652;10.168;2023-02-04T14:13:26;2.50;;;2.20;;
9115;SDS011;4593;53.652;10.168;2023-02-04T14:15:52;1.87;;;1.77;;
9115;SDS011;4593;53.652;10.168;2023-02-04T14:18:18;2.00;;;1.90;;
9115;SDS011;4593;53.652;10.168;2023-02-04T14:20:45;3.33;;;2.23;;
9115;SDS011;4593;53.652;10.168;2023-02-04T14:23:11;3.10;;;2.73;;
9115;SDS011;4593;53.652;10.168;2023-02-04T14:25:37;2.00;;;1.90;;
9115;SDS011;4593;53.652;10.168;2023-02-04T14:28:03;2.70;;;2.30;;
9115;SDS011;4593;53.652;10.168;2023-02-04T14:30:29;2.23;;;2.00;;
9115;SDS011;4593;53.652;10.168;2023-02-04T14:32:56;2.53;;;2.20;;
9115;SDS011;4593;53.652;10.168;2023-02-04T14:35:22;2.67;;;2.13;;
9115;SDS011;4593;53.652;10.168;2023-02-04T14:37:48;2.27;;;1.80;;
9115;SDS011;4593;53.652;10.168;2023-02-04T14:40:16;2.03;;;1.90;;
9115;SDS011;4593;53.652;10.168;2023-02-04T14:42:42;2.20;;;2.00;;
9115;SDS011;4593;53.652;10.168;2023-02-04T14:45:09;2.20;;;2.00;;
9115;SDS011;4593;53.652;10.168;2023-02-04T14:47:35;2.00;;;1.90;;
9115;SDS011;4593;53.652;10.168;2023-02-04T14:50:02;2.17;;;1.80;;
9115;SDS011;4593;53.652;10.168;2023-02-04T14:52:28;2.70;;;2.50;;
9115;SDS011;4593;53.652;10.168;2023-02-04T14:54:54;2.60;;;2.40;;
9115;SDS011;4593;53.652;10.168;2023-02-04T14:57:20;2.40;;;2.20;;
9115;SDS011;4593;53.652;10.168;2023-02-04T14:59:46;2.50;;;2.00;;
9115;SDS011;4593;53.652;10.168;2023-02-04T15:02:13;3.03;;;2.37;;
9115;SDS011;4593;53.652;10.168;2023-02-04T15:04:40;2.50;;;2.30;;
9115;SDS011;4593;53.652;10.168;2023-02-04T15:07:06;2.60;;;2.40;;
9115;SDS011;4593;53.652;10.168;2023-02-04T15:09:32;2.00;;;1.90;;
9115;SDS011;4593;53.652;10.168;2023-02-04T15:11:59;2.70;;;2.50;;
9115;SDS011;4593;53.652;10.168;2023-02-04T15:14:25;2.23;;;2.10;;
9115;SDS011;4593;53.652;10.168;2023-02-04T15:16:51;2.43;;;2.17;;
9115;SDS011;4593;53.652;10.168;2023-02-04T15:19:17;2.40;;;2.20;;
9115;SDS011;4593;53.652;10.168;2023-02-04T15:21:44;2.80;;;2.60;;